Terminal Aerodrome Forecast
Issued by NWS Melbourne, FL

Current Version | Previous Version | Text Only | Print | Product List | Glossary On
Versions: 1 2 3 4 5 6 7 8 9 10 11 12 13 14 15 16
000
FTUS42 KMLB 220800 AAA
TAFDAB
TAF AMD
KDAB 220805Z 2208/2306 VRB02KT P6SM VCSH FEW015 BKN250
      TEMPO 2209/2212 SHRA BKN015
     FM221400 19004KT P6SM VCSH SCT025 SCT250
     FM221700 07008KT P6SM VCTS SCT025CB SCT050 BKN250
      TEMPO 2217/2219 3SM TSRA BKN030CB
     FM230000 14004KT P6SM FEW020 SCT100 OVC250=

USA.gov is the U.S. government's official web portal to all federal, state and local government web resources and services.